Beaver Island, MI

4:10 AM EST on February 10, 2016 (GMT -0500)
Beaver Island

Weather History for KSJX - November, 2013

Change the Weather History Date:

Monday, November 25, 2013

  Actual Average Record
Temperature  
Mean Temperature 34 °F -  
Max Temperature 37 °F 36 °F 57 °F (2001)
Min Temperature 31 °F 26 °F 10 °F (1975)
Degree Days  
Heating Degree Days 31    
Moisture  
Dew Point 27 °F    
Average Humidity 76    
Maximum Humidity 94    
Minimum Humidity 60    
Precipitation  
Precipitation 0.00 in - - ()
Sea Level Pressure  
Sea Level Pressure 29.87 in    
Wind  
Wind Speed 24 mph (SW)    
Max Wind Speed 32 mph    
Max Gust Speed 45 mph    
Visibility 8 miles    
Events Snow    
Averages and records for this station are not official NWS values.
T = Trace of Precipitation, MM = Missing Value Source: NWS Daily Summary

Daily Weather History Graph

Daily Weather History Graph

Search for Another Location

Airport or City:

Trip Planner

Search our weather history database for the weather conditions in past years. The results will help you decide how hot, cold, wet, or windy it might be!

Date:

Astronomy

Nov. 25, 2013 Rise Set
Actual Time 7:55 AM EST 5:02 PM EST
Civil Twilight 7:22 AM EST 5:35 PM EST
Nautical Twilight 6:45 AM EST 6:12 PM EST
Astronomical Twilight 6:10 AM EST 6:48 PM EST
Moon No Moon Rise 1:00 PM EST (11/25)
Length of Visible Light 10h 13m
Length of Day
9h 07m
Waning Gibbous, 51% of the Moon is Illuminated
Nov 25
Waning Gibbous
Nov 25
Last Quarter
Dec 2
New
Dec 9
First Quarter
Dec 17
Full

Hourly Weather History & Observations

Time (EST) Temp. Windchill Dew Point Humidity Pressure Visibility Wind Dir Wind Speed Gust Speed Precip Events Conditions
12:16 AM 32.9 °F 20.1 °F 22.1 °F 65% 30.08 in 10.0 mi SW 24.2 mph 38.0 mph N/A   Overcast
12:36 AM 32.9 °F 20.7 °F 22.1 °F 65% 30.06 in 10.0 mi SW 21.9 mph 39.1 mph N/A   Overcast
12:56 AM 32.5 °F 19.9 °F 21.7 °F 64% 30.04 in 10.0 mi SW 23.0 mph 35.7 mph N/A   Mostly Cloudy
1:15 AM 32.5 °F 19.6 °F 21.2 °F 63% 30.03 in 10.0 mi SW 24.2 mph 34.5 mph N/A   Scattered Clouds
1:36 AM 32.5 °F 18.8 °F 21.2 °F 63% 30.01 in 10.0 mi SW 27.6 mph 39.1 mph N/A   Scattered Clouds
1:56 AM 32.5 °F 20.5 °F 20.7 °F 62% 30.00 in 10.0 mi SW 20.7 mph 34.5 mph N/A   Scattered Clouds
2:16 AM 32.9 °F 19.8 °F 20.3 °F 60% 29.99 in 10.0 mi SW 25.3 mph 40.3 mph N/A   Scattered Clouds
2:36 AM 32.9 °F 19.6 °F 21.0 °F 62% 29.98 in 10.0 mi SW 26.5 mph 36.8 mph N/A   Mostly Cloudy
2:56 AM 32.9 °F 18.4 °F 20.5 °F 60% 29.97 in 10.0 mi SW 32.2 mph 41.4 mph N/A   Overcast
3:16 AM 33.3 °F 19.8 °F 20.8 °F 60% 29.96 in 10.0 mi SW 27.6 mph 38.0 mph N/A   Overcast
3:36 AM 33.8 °F 21.3 °F 22.5 °F 63% 29.95 in 10.0 mi SW 24.2 mph 38.0 mph N/A   Overcast
3:55 AM 33.8 °F 21.3 °F 23.2 °F 65% 29.93 in 10.0 mi SW 24.2 mph 34.5 mph N/A   Overcast
4:16 AM 33.8 °F 22.8 °F 23.0 °F 65% 29.92 in 10.0 mi SW 18.4 mph 34.5 mph N/A   Overcast
4:36 AM 34.2 °F 21.8 °F 23.0 °F 64% 29.90 in 10.0 mi SW 24.2 mph 34.5 mph N/A   Overcast
4:55 AM 34.0 °F 21.3 °F 24.3 °F 68% 29.90 in 10.0 mi SW 25.3 mph 42.6 mph N/A   Overcast
5:16 AM 33.4 °F 21.1 °F 25.3 °F 72% 29.89 in 5.0 mi SW 23.0 mph 40.3 mph N/A Snow Light Snow
5:36 AM 33.6 °F 19.8 °F 25.2 °F 71% 29.88 in 5.0 mi SW 29.9 mph 43.7 mph N/A Snow Light Snow
5:55 AM 34.0 °F 21.3 °F 25.3 °F 71% 29.87 in 5.0 mi SW 25.3 mph 43.7 mph N/A Snow Light Snow
6:16 AM 33.4 °F 20.1 °F 26.6 °F 76% 29.87 in 5.0 mi SW 27.6 mph 40.3 mph N/A Snow Light Snow
6:36 AM 34.3 °F 21.5 °F 25.7 °F 71% 29.87 in 5.0 mi SW 26.5 mph 38.0 mph N/A Snow Light Snow
6:56 AM 32.7 °F 19.1 °F 28.2 °F 83% 29.86 in 1.8 mi SW 27.6 mph 42.6 mph N/A Snow Light Snow
7:16 AM 32.0 °F 17.9 °F 30.0 °F 92% 29.86 in 0.8 mi SW 28.8 mph 41.4 mph N/A Snow Light Snow
7:36 AM 32.0 °F 17.4 °F 30.0 °F 92% 29.85 in 1.0 mi SW 31.1 mph 44.9 mph N/A Snow Snow
7:56 AM 32.0 °F 17.9 °F 30.6 °F 94% 29.84 in 1.0 mi SW 28.8 mph 40.3 mph N/A Snow Light Snow
8:16 AM 31.8 °F 18.4 °F 29.3 °F 90% 29.84 in 0.8 mi WSW 25.3 mph 39.1 mph N/A Snow Light Snow
8:35 AM 31.5 °F 16.4 °F 29.1 °F 91% 29.83 in 0.5 mi SW 32.2 mph 43.7 mph N/A Snow Snow
8:56 AM 31.1 °F 16.4 °F 29.1 °F 92% 29.83 in 0.2 mi SW 29.9 mph 38.0 mph N/A Snow Snow
9:16 AM 31.1 °F 16.9 °F 29.3 °F 93% 29.84 in 0.5 mi SW 27.6 mph 35.7 mph N/A Snow Snow
9:35 AM 31.3 °F 18.5 °F 29.3 °F 92% 29.85 in 0.5 mi WSW 21.9 mph 36.8 mph N/A Snow Light Snow
9:56 AM 32.0 °F 18.9 °F 28.9 °F 88% 29.84 in 1.8 mi SW 24.2 mph 40.3 mph N/A Snow Light Snow
10:16 AM 32.0 °F 19.2 °F 27.9 °F 85% 29.84 in 4.0 mi SW 23.0 mph 35.7 mph N/A Snow Light Snow
10:36 AM 32.0 °F 18.1 °F 26.8 °F 81% 29.83 in 10.0 mi SW 27.6 mph 34.5 mph N/A   Overcast
10:56 AM 32.0 °F 19.5 °F 26.6 °F 80% 29.83 in 7.0 mi SW 21.9 mph 31.1 mph N/A   Overcast
11:16 AM 32.0 °F 19.2 °F 26.1 °F 79% 29.83 in 5.0 mi SW 23.0 mph 38.0 mph N/A   Haze
11:36 AM 32.0 °F 20.8 °F 27.0 °F 82% 29.82 in 7.0 mi SW 17.3 mph 33.4 mph N/A   Overcast
11:56 AM 32.0 °F 19.2 °F 26.8 °F 81% 29.81 in 7.0 mi SW 23.0 mph 36.8 mph N/A   Overcast
12:15 PM 32.9 °F 21.3 °F 27.1 °F 79% 29.80 in 10.0 mi SW 19.6 mph 32.2 mph N/A   Overcast
12:36 PM 32.9 °F 20.1 °F 27.0 °F 79% 29.80 in 10.0 mi SW 24.2 mph 34.5 mph N/A   Overcast
12:56 PM 32.9 °F 21.0 °F 27.9 °F 82% 29.80 in 10.0 mi SW 20.7 mph 31.1 mph N/A   Overcast
1:15 PM 32.9 °F 20.7 °F 28.2 °F 83% 29.80 in 10.0 mi SW 21.9 mph 29.9 mph N/A   Overcast
1:36 PM 33.1 °F 20.9 °F 28.2 °F 82% 29.79 in 10.0 mi SW 21.9 mph 28.8 mph N/A   Overcast
1:55 PM 33.4 °F 21.4 °F 28.6 °F 82% 29.79 in 10.0 mi WSW 21.9 mph 32.2 mph N/A   Overcast
2:16 PM 33.8 °F 21.9 °F 28.6 °F 81% 29.79 in 10.0 mi WSW 21.9 mph 32.2 mph N/A   Overcast
2:36 PM 34.0 °F 22.4 °F 28.8 °F 81% 29.79 in 10.0 mi WSW 20.7 mph 27.6 mph N/A   Overcast
2:55 PM 34.3 °F 22.6 °F 28.4 °F 79% 29.79 in 10.0 mi WSW 21.9 mph 27.6 mph N/A   Overcast
3:16 PM 34.3 °F 22.0 °F 28.8 °F 80% 29.80 in 10.0 mi WSW 24.2 mph 33.4 mph N/A   Overcast
3:36 PM 34.7 °F 23.4 °F 28.6 °F 78% 29.80 in 10.0 mi SW 20.7 mph 28.8 mph N/A   Overcast
3:56 PM 34.9 °F 23.9 °F 29.3 °F 80% 29.81 in 10.0 mi WSW 19.6 mph 28.8 mph N/A   Overcast
4:16 PM 35.1 °F 22.7 °F 28.9 °F 78% 29.81 in 10.0 mi WSW 25.3 mph 34.5 mph N/A Snow Light Snow
4:36 PM 35.1 °F 24.1 °F 29.1 °F 79% 29.82 in 10.0 mi WSW 19.6 mph 32.2 mph N/A Snow Light Snow
4:56 PM 35.6 °F 24.2 °F 29.3 °F 78% 29.83 in 10.0 mi WSW 21.9 mph 33.4 mph N/A   Overcast
5:16 PM 35.8 °F 24.5 °F 29.3 °F 77% 29.83 in 10.0 mi WSW 21.9 mph 28.8 mph N/A   Overcast
5:36 PM 36.0 °F 26.3 °F 29.3 °F 77% 29.83 in 10.0 mi WSW 16.1 mph 27.6 mph N/A   Overcast
5:56 PM 35.8 °F 25.1 °F 29.5 °F 78% 29.83 in 10.0 mi WSW 19.6 mph 28.8 mph N/A   Overcast
6:15 PM 36.1 °F 25.2 °F 29.8 °F 78% 29.84 in 10.0 mi WSW 20.7 mph 27.6 mph N/A   Overcast
6:36 PM 36.5 °F 26.0 °F 29.7 °F 76% 29.84 in 10.0 mi WSW 19.6 mph 28.8 mph N/A   Overcast
6:56 PM 36.5 °F 25.7 °F 29.8 °F 77% 29.84 in 10.0 mi WSW 20.7 mph 27.6 mph N/A   Overcast
7:16 PM 36.9 °F 26.8 °F 30.0 °F 76% 29.85 in 10.0 mi WSW 18.4 mph 27.6 mph N/A   Overcast
7:36 PM 37.2 °F 26.4 °F 30.4 °F 76% 29.85 in 10.0 mi WSW 21.9 mph 28.8 mph N/A   Overcast
7:56 PM 37.4 °F 26.4 °F 30.6 °F 76% 29.85 in 10.0 mi West 23.0 mph 29.9 mph N/A   Overcast
8:16 PM 37.6 °F 26.9 °F 29.8 °F 74% 29.85 in 10.0 mi WSW 21.9 mph 31.1 mph N/A   Overcast
8:36 PM 37.6 °F 27.1 °F 30.9 °F 77% 29.86 in 10.0 mi WSW 20.7 mph 32.2 mph N/A   Overcast
8:55 PM 37.6 °F 26.1 °F 30.2 °F 75% 29.86 in 10.0 mi WSW 25.3 mph 32.2 mph N/A   Overcast
9:16 PM 37.8 °F 27.1 °F 30.2 °F 74% 29.86 in 10.0 mi WSW 21.9 mph 31.1 mph N/A   Overcast
9:36 PM 37.8 °F 27.4 °F 30.4 °F 75% 29.86 in 10.0 mi WSW 20.7 mph 28.8 mph N/A   Overcast
9:56 PM 37.9 °F 27.6 °F 30.7 °F 75% 29.86 in 10.0 mi WSW 20.7 mph 26.5 mph N/A   Overcast
10:16 PM 37.8 °F 26.6 °F 30.4 °F 75% 29.85 in 10.0 mi WSW 24.2 mph 28.8 mph N/A   Overcast
10:36 PM 37.6 °F 27.7 °F 30.7 °F 76% 29.86 in 10.0 mi WSW 18.4 mph 27.6 mph N/A   Overcast
10:56 PM 37.6 °F 27.1 °F 30.7 °F 76% 29.86 in 10.0 mi WSW 20.7 mph 25.3 mph N/A   Overcast
11:16 PM 37.6 °F 27.1 °F 30.6 °F 76% 29.85 in 10.0 mi WSW 20.7 mph 27.6 mph N/A   Overcast
11:35 PM 37.4 °F 27.5 °F 30.4 °F 76% 29.85 in 10.0 mi WSW 18.4 mph 23.0 mph N/A   Overcast
11:56 PM 37.8 °F 27.4 °F 30.0 °F 74% 29.86 in 10.0 mi WSW 20.7 mph 25.3 mph N/A   Overcast